createdAt,value
2018-07-11T00:00:35.255Z,77.33
2018-07-11T00:03:05.310Z,77.75
2018-07-11T00:05:34.804Z,77.88
2018-07-11T00:08:04.208Z,77.40
2018-07-11T00:10:33.605Z,77.67
2018-07-11T00:13:02.977Z,77.74
2018-07-11T00:15:32.394Z,78.00
2018-07-11T00:18:01.776Z,77.23
2018-07-11T00:20:31.180Z,77.38
2018-07-11T00:23:00.578Z,77.73
2018-07-11T00:25:29.993Z,78.29
2018-07-11T00:27:59.396Z,78.26
2018-07-11T00:30:28.858Z,78.39
2018-07-11T00:32:58.258Z,79.31
2018-07-11T00:35:27.656Z,78.81
2018-07-11T00:37:57.105Z,79.02
2018-07-11T00:40:26.636Z,79.60
2018-07-11T00:42:56.350Z,79.50
2018-07-11T00:45:25.827Z,79.78
2018-07-11T00:47:55.254Z,79.23
2018-07-11T00:50:24.646Z,79.07
2018-07-11T00:52:54.151Z,79.37
2018-07-11T00:55:23.658Z,80.23
2018-07-11T00:57:53.063Z,79.72
2018-07-11T01:00:22.433Z,80.16
2018-07-11T01:02:51.946Z,79.29
2018-07-11T01:05:21.381Z,79.49
2018-07-11T01:07:50.891Z,79.54
2018-07-11T01:10:20.577Z,80.01
2018-07-11T01:12:50.419Z,79.85
2018-07-11T01:15:19.993Z,80.20
2018-07-11T01:17:54.981Z,80.13
2018-07-11T01:20:24.358Z,79.83
2018-07-11T01:22:53.729Z,79.68
2018-07-11T01:25:23.210Z,80.02
2018-07-11T01:27:53.322Z,79.64
2018-07-11T01:30:29.242Z,79.50
2018-07-11T01:32:58.682Z,79.49
2018-07-11T01:35:28.050Z,79.38
2018-07-11T01:37:57.814Z,79.61
2018-07-11T01:40:27.210Z,79.79
2018-07-11T01:42:56.589Z,79.09
2018-07-11T01:45:26.001Z,79.03
2018-07-11T01:47:55.535Z,79.38
2018-07-11T01:50:25.084Z,79.43
2018-07-11T01:52:58.437Z,79.59
2018-07-11T01:55:28.453Z,79.07
2018-07-11T01:57:59.834Z,78.43
2018-07-11T02:00:30.398Z,78.98
2018-07-11T02:02:59.974Z,79.33
2018-07-11T02:05:29.364Z,79.32
2018-07-11T02:07:58.850Z,79.20
2018-07-11T02:10:29.256Z,79.43
2018-07-11T02:12:59.399Z,78.79
2018-07-11T02:15:28.850Z,78.64
2018-07-11T02:17:58.548Z,77.76
2018-07-11T02:20:27.982Z,77.60
2018-07-11T02:22:57.416Z,77.47
2018-07-11T02:25:27.235Z,77.36
2018-07-11T02:27:56.837Z,76.85
2018-07-11T02:30:26.596Z,77.10
2018-07-11T02:32:56.009Z,78.11
2018-07-11T02:35:25.459Z,77.67
2018-07-11T02:37:54.867Z,77.92
2018-07-11T02:40:24.202Z,77.25
2018-07-11T02:42:53.579Z,77.09
2018-07-11T02:45:23.366Z,77.94
2018-07-11T02:47:52.739Z,77.89
2018-07-11T02:50:22.361Z,77.75
2018-07-11T02:52:54.687Z,78.56
2018-07-11T02:55:24.399Z,78.84
2018-07-11T02:57:53.758Z,78.40
2018-07-11T03:00:23.134Z,79.12
2018-07-11T03:02:52.842Z,79.23
2018-07-11T03:05:22.797Z,78.92
2018-07-11T03:07:52.229Z,79.35
2018-07-11T03:10:21.696Z,79.10
2018-07-11T03:12:51.091Z,79.47
2018-07-11T03:15:20.638Z,80.06
2018-07-11T03:17:50.114Z,79.91
2018-07-11T03:20:19.645Z,80.04
2018-07-11T03:22:50.102Z,79.09
2018-07-11T03:25:19.497Z,80.14
2018-07-11T03:27:49.017Z,79.91
2018-07-11T03:30:18.532Z,79.89
2018-07-11T03:32:47.957Z,79.67
2018-07-11T03:35:17.696Z,78.69
2018-07-11T03:37:47.158Z,78.81
2018-07-11T03:40:16.603Z,78.27
2018-07-11T03:42:46.053Z,77.43
2018-07-11T03:45:15.428Z,77.49
2018-07-11T03:47:46.342Z,77.14
2018-07-11T03:50:15.820Z,76.63
2018-07-11T03:52:45.681Z,77.04
2018-07-11T03:55:14.993Z,76.81
2018-07-11T03:57:44.389Z,76.47
2018-07-11T04:00:14.388Z,75.89
2018-07-11T04:02:43.823Z,76.75
2018-07-11T04:05:13.205Z,76.15
2018-07-11T04:07:42.946Z,75.96
2018-07-11T04:10:12.402Z,76.34
2018-07-11T04:12:41.920Z,75.49
2018-07-11T04:15:11.323Z,76.03
2018-07-11T04:17:40.717Z,75.99
2018-07-11T04:20:10.105Z,76.93
2018-07-11T04:22:39.647Z,76.30
2018-07-11T04:25:09.387Z,75.93
2018-07-11T04:27:38.763Z,75.66
2018-07-11T04:30:08.247Z,75.68
2018-07-11T04:32:37.638Z,75.63
2018-07-11T04:35:07.037Z,74.79
2018-07-11T04:37:36.469Z,73.45
2018-07-11T04:40:05.998Z,72.41
2018-07-11T04:42:35.437Z,73.08
2018-07-11T04:45:04.907Z,71.86
2018-07-11T04:47:34.403Z,70.64
2018-07-11T04:50:04.141Z,69.00
2018-07-11T04:52:33.547Z,68.65
2018-07-11T04:55:02.970Z,68.89
2018-07-11T04:57:32.381Z,68.87
2018-07-11T05:00:01.753Z,69.50
2018-07-11T05:02:31.209Z,70.57
2018-07-11T05:05:00.652Z,69.14
2018-07-11T05:07:31.595Z,68.43
2018-07-11T05:10:01.234Z,67.72
2018-07-11T05:12:30.782Z,67.45
2018-07-11T05:15:00.227Z,67.88
2018-07-11T05:17:29.631Z,67.05
2018-07-11T05:19:59.099Z,67.96
2018-07-11T05:22:29.133Z,69.43
2018-07-11T05:24:58.635Z,67.36
2018-07-11T05:27:28.348Z,65.34
2018-07-11T05:29:57.811Z,65.64
2018-07-11T05:32:27.801Z,64.63
2018-07-11T05:34:57.205Z,63.30
2018-07-11T05:37:26.607Z,64.03
2018-07-11T05:39:56.009Z,63.69
2018-07-11T05:42:25.443Z,63.92
2018-07-11T05:44:54.841Z,63.63
2018-07-11T05:47:24.267Z,64.32
2018-07-11T05:49:54.767Z,63.03
2018-07-11T05:52:24.935Z,63.55
2018-07-11T05:54:58.843Z,62.47
2018-07-11T05:57:29.239Z,63.22
2018-07-11T05:59:59.641Z,62.01
2018-07-11T06:02:29.255Z,62.86
2018-07-11T06:04:59.872Z,64.40
2018-07-11T06:07:29.996Z,63.12
2018-07-11T06:09:59.492Z,63.34
2018-07-11T06:12:29.021Z,62.22
2018-07-11T06:14:58.638Z,62.23
2018-07-11T06:17:28.168Z,62.23
2018-07-11T06:19:57.938Z,61.98
2018-07-11T06:22:27.569Z,62.62
2018-07-11T06:24:57.481Z,63.92
2018-07-11T06:27:26.929Z,62.76
2018-07-11T06:29:56.363Z,63.56
2018-07-11T06:32:25.838Z,62.51
2018-07-11T06:34:55.225Z,64.94
2018-07-11T06:37:24.983Z,63.18
2018-07-11T06:39:54.446Z,62.37
2018-07-11T06:42:23.654Z,62.60
2018-07-11T06:44:53.131Z,62.24
2018-07-11T06:47:22.635Z,62.01
2018-07-11T06:49:52.453Z,61.03
2018-07-11T06:52:22.146Z,61.41
2018-07-11T06:54:51.664Z,61.47
2018-07-11T06:57:21.403Z,60.25
2018-07-11T06:59:50.879Z,61.39
2018-07-11T07:02:21.365Z,61.79
2018-07-11T07:04:51.420Z,61.41
2018-07-11T07:07:20.881Z,60.76
2018-07-11T07:09:50.844Z,59.58
2018-07-11T07:12:20.776Z,60.49
2018-07-11T07:14:50.281Z,59.55
2018-07-11T07:17:19.705Z,58.43
2018-07-11T07:19:49.166Z,59.11
2018-07-11T07:22:18.782Z,59.90
2018-07-11T07:24:48.285Z,59.70
2018-07-11T07:27:17.690Z,59.97
2018-07-11T07:29:47.098Z,58.89
2018-07-11T07:32:16.534Z,58.60
2018-07-11T07:34:46.041Z,56.92
2018-07-11T07:37:15.381Z,58.20
2018-07-11T07:39:44.530Z,59.15
2018-07-11T07:42:13.954Z,59.23
2018-07-11T07:44:43.487Z,56.95
2018-07-11T07:47:18.131Z,59.09
2018-07-11T07:49:47.589Z,57.60
2018-07-11T07:52:17.013Z,60.03
2018-07-11T07:54:46.494Z,61.29
2018-07-11T07:57:15.982Z,60.07
2018-07-11T07:59:45.883Z,58.89
2018-07-11T08:02:15.409Z,58.84
2018-07-11T08:04:48.977Z,55.85
2018-07-11T08:07:18.416Z,56.95
2018-07-11T08:09:47.907Z,57.02
2018-07-11T08:12:17.410Z,56.65
2018-07-11T08:14:46.856Z,57.63
2018-07-11T08:17:16.256Z,57.07
2018-07-11T08:19:45.699Z,57.47
2018-07-11T08:22:39.557Z,57.77
2018-07-11T08:25:26.175Z,54.94
2018-07-11T08:28:12.167Z,56.14
2018-07-11T08:30:55.975Z,56.87
2018-07-11T08:34:18.556Z,58.20
2018-07-11T08:39:06.292Z,54.77
2018-07-11T08:42:30.395Z,55.21
2018-07-11T08:45:15.216Z,57.01
2018-07-11T08:48:00.001Z,52.72
2018-07-11T08:52:45.713Z,52.29
2018-07-11T08:56:45.093Z,51.43
2018-07-11T09:00:34.249Z,53.19
2018-07-11T09:03:17.368Z,53.25
2018-07-11T09:06:08.470Z,54.99
2018-07-11T09:08:59.064Z,55.10
2018-07-11T09:11:46.236Z,53.32
2018-07-11T09:14:33.637Z,53.27
2018-07-11T09:19:33.352Z,52.48
2018-07-11T09:22:23.890Z,53.69
2018-07-11T09:24:53.429Z,53.08
2018-07-11T09:27:22.928Z,51.26
2018-07-11T09:29:52.471Z,53.97
2018-07-11T09:32:21.978Z,51.94
2018-07-11T09:34:51.394Z,52.14
2018-07-11T09:37:20.932Z,52.16
2018-07-11T09:39:50.353Z,53.39
2018-07-11T09:42:20.105Z,52.41
2018-07-11T09:44:49.587Z,52.79
2018-07-11T09:47:24.262Z,52.32
2018-07-11T09:49:53.723Z,52.75
2018-07-11T09:52:23.572Z,50.69
2018-07-11T09:54:53.457Z,52.13
2018-07-11T09:57:23.577Z,50.60
2018-07-11T09:59:53.306Z,49.57
2018-07-11T10:02:22.853Z,51.00
2018-07-11T10:04:52.828Z,50.23
2018-07-11T10:07:23.099Z,50.93
2018-07-11T10:09:52.748Z,49.80
2018-07-11T10:12:22.296Z,50.50
2018-07-11T10:14:52.171Z,49.66
2018-07-11T10:17:21.825Z,50.45
2018-07-11T10:19:51.315Z,50.97
2018-07-11T10:22:20.766Z,48.93
2018-07-11T10:24:50.272Z,50.04
2018-07-11T10:27:26.401Z,51.06
2018-07-11T10:29:55.802Z,52.38
2018-07-11T10:32:25.214Z,51.93
2018-07-11T10:34:54.752Z,52.59
2018-07-11T10:37:24.232Z,53.40
2018-07-11T10:39:53.750Z,51.67
2018-07-11T10:42:23.275Z,51.69
2018-07-11T10:44:52.744Z,52.31
2018-07-11T10:47:22.231Z,52.69
2018-07-11T10:49:51.840Z,55.07
2018-07-11T10:52:22.218Z,55.35
2018-07-11T10:54:52.013Z,53.65
2018-07-11T10:57:21.437Z,53.51
2018-07-11T10:59:51.350Z,51.90
2018-07-11T11:02:23.331Z,51.07
2018-07-11T11:04:52.948Z,51.79
2018-07-11T11:07:22.480Z,51.95
2018-07-11T11:09:52.147Z,52.68
2018-07-11T11:12:21.617Z,52.25
2018-07-11T11:14:51.361Z,52.41
2018-07-11T11:17:20.871Z,52.79
2018-07-11T11:19:50.344Z,51.69
2018-07-11T11:22:19.732Z,52.78
2018-07-11T11:24:49.110Z,53.92
2018-07-11T11:27:18.536Z,55.79
2018-07-11T11:29:47.963Z,56.64
2018-07-11T11:32:17.418Z,57.08
2018-07-11T11:34:47.133Z,58.23
2018-07-11T11:37:16.535Z,60.26
2018-07-11T11:39:45.974Z,59.42
2018-07-11T11:42:15.561Z,59.59
2018-07-11T11:44:44.869Z,58.50
2018-07-11T11:47:14.365Z,58.40
2018-07-11T11:49:43.878Z,58.55
2018-07-11T11:52:13.283Z,59.14
2018-07-11T11:54:42.679Z,59.12
2018-07-11T11:57:12.720Z,57.58
2018-07-11T11:59:42.282Z,57.90
2018-07-11T12:02:11.623Z,59.07
2018-07-11T12:04:41.008Z,58.45
2018-07-11T12:07:10.239Z,57.39
2018-07-11T12:09:39.621Z,56.68
2018-07-11T12:12:09.010Z,55.54
2018-07-11T12:14:38.414Z,55.31
2018-07-11T12:17:07.840Z,54.90
2018-07-11T12:19:37.426Z,53.96
2018-07-11T12:22:07.441Z,54.54
2018-07-11T12:24:36.879Z,55.69
2018-07-11T12:27:07.883Z,56.69
2018-07-11T12:29:37.373Z,54.76
2018-07-11T12:32:06.878Z,55.48
2018-07-11T12:34:36.259Z,56.14
2018-07-11T12:37:05.664Z,53.61
2018-07-11T12:39:35.038Z,53.98
2018-07-11T12:42:04.549Z,54.09
2018-07-11T12:44:33.942Z,51.94
2018-07-11T12:47:03.459Z,53.27
2018-07-11T12:49:32.888Z,53.70
2018-07-11T12:52:02.302Z,51.78
2018-07-11T12:54:32.161Z,54.28
2018-07-11T12:57:01.582Z,52.79
2018-07-11T12:59:30.935Z,54.15
2018-07-11T13:02:00.349Z,53.45
2018-07-11T13:04:30.150Z,53.20
2018-07-11T13:06:59.589Z,53.97
2018-07-11T13:09:29.028Z,53.05
2018-07-11T13:11:58.515Z,52.20
2018-07-11T13:14:27.960Z,52.41
2018-07-11T13:16:57.336Z,52.79
2018-07-11T13:19:26.777Z,53.12
2018-07-11T13:21:56.207Z,51.52
2018-07-11T13:24:25.653Z,51.43
2018-07-11T13:26:54.818Z,53.25
2018-07-11T13:29:24.341Z,52.13
2018-07-11T13:31:53.884Z,49.59
2018-07-11T13:34:23.277Z,49.54
2018-07-11T13:36:52.893Z,48.73
2018-07-11T13:39:23.201Z,49.67
2018-07-11T13:41:53.032Z,48.46
2018-07-11T13:44:22.491Z,47.34
2018-07-11T13:46:51.987Z,49.80
2018-07-11T13:49:21.459Z,51.55
2018-07-11T13:51:50.910Z,47.29
2018-07-11T13:54:20.312Z,46.71
2018-07-11T13:56:49.910Z,47.53
2018-07-11T13:59:19.458Z,48.21
2018-07-11T14:01:48.881Z,49.42
2018-07-11T14:04:18.435Z,47.09
2018-07-11T14:06:47.930Z,48.17
2018-07-11T14:09:17.412Z,45.18
2018-07-11T14:11:46.918Z,46.74
2018-07-11T14:14:16.322Z,43.06
2018-07-11T14:16:45.806Z,45.36
2018-07-11T14:19:15.237Z,44.63
2018-07-11T14:21:44.634Z,45.39
2018-07-11T14:24:14.616Z,46.39
2018-07-11T14:26:44.606Z,47.63
2018-07-11T14:29:14.106Z,46.06
2018-07-11T14:31:43.834Z,46.92
2018-07-11T14:34:13.212Z,46.70
2018-07-11T14:36:42.573Z,47.73
2018-07-11T14:39:11.962Z,48.87
2018-07-11T14:41:41.461Z,48.71
2018-07-11T14:44:10.862Z,49.35
2018-07-11T14:46:40.220Z,47.80
2018-07-11T14:49:09.765Z,49.52
2018-07-11T14:51:39.243Z,48.48
2018-07-11T14:54:08.538Z,49.46
2018-07-11T14:56:37.938Z,49.97
2018-07-11T14:59:07.382Z,51.53
2018-07-11T15:01:36.800Z,50.73
2018-07-11T15:04:06.524Z,51.42
2018-07-11T15:06:35.962Z,50.89
2018-07-11T15:09:06.243Z,51.73
2018-07-11T15:11:35.912Z,52.38
2018-07-11T15:14:05.461Z,53.21
2018-07-11T15:16:35.139Z,52.16
2018-07-11T15:19:04.588Z,52.26
2018-07-11T15:21:34.154Z,52.95
2018-07-11T15:24:03.686Z,51.60
2018-07-11T15:26:33.343Z,51.74
2018-07-11T15:29:09.486Z,51.66
2018-07-11T15:31:38.981Z,53.74
2018-07-11T15:34:08.658Z,52.77
2018-07-11T15:36:38.132Z,53.33
2018-07-11T15:39:07.763Z,52.39
2018-07-11T15:41:37.720Z,52.07
2018-07-11T15:44:07.315Z,52.37
2018-07-11T15:46:37.238Z,52.17
2018-07-11T15:49:06.646Z,52.59
2018-07-11T15:51:36.919Z,53.39
2018-07-11T15:54:06.492Z,50.94
2018-07-11T15:56:35.967Z,51.36
2018-07-11T15:59:11.001Z,52.26
2018-07-11T16:01:49.886Z,51.96
2018-07-11T16:04:39.599Z,49.26
2018-07-11T16:07:09.978Z,50.09
2018-07-11T16:09:54.382Z,49.87
2018-07-11T16:12:24.455Z,49.16
2018-07-11T16:14:54.282Z,46.94
2018-07-11T16:17:24.370Z,47.64
2018-07-11T16:19:53.849Z,49.36
2018-07-11T16:22:23.611Z,51.13
2018-07-11T16:24:53.097Z,50.81
2018-07-11T16:27:22.622Z,49.12
2018-07-11T16:29:52.156Z,48.63
2018-07-11T16:32:21.618Z,48.11
2018-07-11T16:34:51.490Z,47.79
2018-07-11T16:37:24.227Z,49.16
2018-07-11T16:39:53.993Z,47.92
2018-07-11T16:42:23.448Z,48.48
2018-07-11T16:44:52.948Z,48.80
2018-07-11T16:47:22.872Z,48.11
2018-07-11T16:49:52.627Z,47.90
2018-07-11T16:52:22.176Z,48.25
2018-07-11T16:54:51.639Z,49.25
2018-07-11T16:57:56.493Z,49.58
2018-07-11T17:00:32.400Z,48.93
2018-07-11T17:03:06.431Z,48.93
2018-07-11T17:05:53.540Z,48.82
2018-07-11T17:08:32.290Z,49.44
2018-07-11T17:11:17.852Z,49.82
2018-07-11T17:14:05.253Z,50.15
2018-07-11T17:17:00.526Z,49.55
2018-07-11T17:19:38.363Z,48.31
2018-07-11T17:22:08.683Z,50.53
2018-07-11T17:24:45.531Z,49.72
2018-07-11T17:27:15.198Z,49.98
2018-07-11T17:29:46.996Z,50.48
2018-07-11T17:32:16.497Z,50.42
2018-07-11T17:34:46.222Z,50.21
2018-07-11T17:37:16.175Z,50.97
2018-07-11T17:39:54.278Z,50.86
2018-07-11T17:42:27.356Z,50.68
2018-07-11T17:45:24.042Z,52.66
2018-07-11T17:50:15.043Z,51.54
2018-07-11T17:53:00.443Z,51.82
2018-07-11T17:55:35.672Z,51.82
2018-07-11T17:58:09.597Z,51.37
2018-07-11T18:01:05.721Z,52.06
2018-07-11T18:03:57.228Z,50.43
2018-07-11T18:07:14.304Z,49.95
2018-07-11T18:10:01.669Z,50.10
2018-07-11T18:12:55.933Z,50.43
2018-07-11T18:15:53.979Z,50.31
2018-07-11T18:18:44.820Z,50.79
2018-07-11T18:22:26.771Z,50.97
2018-07-11T18:27:19.541Z,52.20
2018-07-11T18:30:13.996Z,49.83
2018-07-11T18:33:02.208Z,51.75
2018-07-11T18:36:08.625Z,50.71
2018-07-11T18:38:55.067Z,50.66
2018-07-11T18:41:37.425Z,52.76
2018-07-11T18:45:04.733Z,51.46
2018-07-11T18:48:03.144Z,50.29
2018-07-11T18:50:45.960Z,49.93
2018-07-11T18:53:34.542Z,50.51
2018-07-11T18:56:15.230Z,51.98
2018-07-11T18:58:57.843Z,50.67
2018-07-11T19:02:47.115Z,51.73
2018-07-11T19:05:38.085Z,50.70
2018-07-11T19:08:29.231Z,51.67
2018-07-11T19:11:26.565Z,51.34
2018-07-11T19:14:05.192Z,52.27
2018-07-11T19:16:50.400Z,52.26
2018-07-11T19:20:30.026Z,52.88
2018-07-11T19:23:26.989Z,52.63
2018-07-11T19:28:18.218Z,52.89
2018-07-11T19:31:03.622Z,53.15
2018-07-11T19:34:10.144Z,52.62
2018-07-11T19:36:59.403Z,53.68
2018-07-11T19:41:50.328Z,54.29
2018-07-11T19:44:37.096Z,54.04
2018-07-11T19:48:27.257Z,53.08
2018-07-11T19:51:09.396Z,52.70
2018-07-11T19:53:55.104Z,53.33
2018-07-11T19:56:42.018Z,53.97
2018-07-11T19:59:11.497Z,54.21
2018-07-11T20:01:40.912Z,55.68
2018-07-11T20:04:11.358Z,55.93
2018-07-11T20:06:40.832Z,56.16
2018-07-11T20:09:10.552Z,55.03
2018-07-11T20:11:39.987Z,56.23
2018-07-11T20:14:09.381Z,56.53
2018-07-11T20:16:38.910Z,57.20
2018-07-11T20:19:08.273Z,56.40
2018-07-11T20:21:37.688Z,56.38
2018-07-11T20:24:07.083Z,57.30
2018-07-11T20:26:36.551Z,56.76
2018-07-11T20:29:06.126Z,58.08
2018-07-11T20:31:35.494Z,58.19
2018-07-11T20:34:04.869Z,56.29
2018-07-11T20:36:35.041Z,55.74
2018-07-11T20:39:05.197Z,56.30
2018-07-11T20:41:34.689Z,56.82
2018-07-11T20:44:04.105Z,55.92
2018-07-11T20:46:36.194Z,56.89
2018-07-11T20:49:11.412Z,59.05
2018-07-11T20:51:40.817Z,57.11
2018-07-11T20:54:10.306Z,58.29
2018-07-11T20:56:39.697Z,58.11
2018-07-11T20:59:26.037Z,57.18
2018-07-11T21:02:12.284Z,58.57
2018-07-11T21:05:46.721Z,57.63
2018-07-11T21:10:51.181Z,57.79
2018-07-11T21:15:09.230Z,58.54
2018-07-11T21:18:11.605Z,58.25
2018-07-11T21:20:41.040Z,59.27
2018-07-11T21:23:12.479Z,58.99
2018-07-11T21:25:41.894Z,58.71
2018-07-11T21:28:11.433Z,58.68
2018-07-11T21:30:40.818Z,59.39
2018-07-11T21:33:10.310Z,58.94
2018-07-11T21:35:39.817Z,58.02
2018-07-11T21:38:09.278Z,58.64
2018-07-11T21:40:38.723Z,56.96
2018-07-11T21:43:08.073Z,56.24
2018-07-11T21:45:37.477Z,56.91
2018-07-11T21:48:06.836Z,57.15
2018-07-11T21:50:36.241Z,56.89
2018-07-11T21:53:05.659Z,57.36
2018-07-11T21:55:35.004Z,57.03
2018-07-11T21:58:04.700Z,57.40
2018-07-11T22:00:38.833Z,56.85
2018-07-11T22:03:09.584Z,57.64
2018-07-11T22:05:39.278Z,58.16
2018-07-11T22:08:09.440Z,57.92
2018-07-11T22:10:39.996Z,58.02
2018-07-11T22:13:09.798Z,58.32
2018-07-11T22:15:39.136Z,57.92
2018-07-11T22:18:25.738Z,59.30
2018-07-11T22:20:53.472Z,59.45
2018-07-11T22:23:21.239Z,60.71
2018-07-11T22:25:49.005Z,61.69
2018-07-11T22:28:16.770Z,61.04
2018-07-11T22:30:44.552Z,61.05
2018-07-11T22:33:12.261Z,60.81
2018-07-11T22:35:39.989Z,61.51
2018-07-11T22:38:07.730Z,61.54
2018-07-11T22:40:35.922Z,61.86
2018-07-11T22:43:04.099Z,60.23
2018-07-11T22:45:31.840Z,61.92
2018-07-11T22:47:59.633Z,61.93
2018-07-11T22:50:27.933Z,62.33
2018-07-11T22:52:55.660Z,60.85
2018-07-11T22:55:23.596Z,60.86
2018-07-11T22:57:51.577Z,61.78
2018-07-11T23:00:19.354Z,62.41
2018-07-11T23:02:47.111Z,63.34
2018-07-11T23:05:14.892Z,63.61
2018-07-11T23:07:43.639Z,63.92
2018-07-11T23:10:11.366Z,63.70
2018-07-11T23:12:39.089Z,63.31
2018-07-11T23:15:06.906Z,63.46
2018-07-11T23:17:34.632Z,62.70
2018-07-11T23:20:02.390Z,63.38
2018-07-11T23:22:30.157Z,63.65
2018-07-11T23:24:57.916Z,62.88
2018-07-11T23:27:25.713Z,62.09
2018-07-11T23:29:53.441Z,61.72
2018-07-11T23:32:21.191Z,61.96
2018-07-11T23:34:48.933Z,61.58
2018-07-11T23:37:16.734Z,62.11
2018-07-11T23:39:44.466Z,62.01
2018-07-11T23:42:12.234Z,63.38
2018-07-11T23:44:39.969Z,61.91
2018-07-11T23:47:07.722Z,62.43
2018-07-11T23:49:35.459Z,62.49
2018-07-11T23:52:03.247Z,62.19
2018-07-11T23:54:30.966Z,62.09
2018-07-11T23:56:58.709Z,62.36
2018-07-11T23:59:26.467Z,62.89
